Time;durP1;ratioP1;P1;durP2;ratioP2;P2;SDS_P1;SDS_P2;PMS_P1;PMS_P2;Temp;Humidity;BMP_temperature;BMP_pressure;BME280_temperature;BME280_humidity;BME280_pressure;Samples;Min_cycle;Max_cycle;Signal;HPM_P1;HPM_P2
2023/06/12 00:00:06;;;;;;;;;;;23.20;90.90;;;;;;4593116;19;19953;-24
2023/06/12 00:01:39;;;;;;;;;;;23.20;90.90;;;;;;4593274;19;19926;-24
2023/06/12 00:03:12;;;;;;;;;;;23.20;90.90;;;;;;4592227;19;19923;-23
2023/06/12 00:04:44;;;;;;;;;;;23.20;90.90;;;;;;4593631;19;20268;-26
2023/06/12 00:06:16;;;;;;;;;;;23.20;90.90;;;;;;4590801;19;20312;-26
2023/06/12 00:07:47;;;;;;;;;;;23.20;90.90;;;;;;4590774;19;19921;-27
2023/06/12 00:09:20;;;;;;;;;;;23.20;90.90;;;;;;4593562;19;20351;-26
2023/06/12 00:10:52;;;;;;;;;;;23.20;90.90;;;;;;4593747;19;19923;-27
2023/06/12 00:12:24;;;;;;;;;;;23.20;91.00;;;;;;4593018;19;19919;-28
2023/06/12 00:13:54;;;;;;;;;;;23.20;91.00;;;;;;4593416;19;19928;-24
2023/06/12 00:15:26;;;;;;;;;;;23.20;91.00;;;;;;4593513;19;19925;-28
2023/06/12 00:16:57;;;;;;;;;;;23.20;91.00;;;;;;4592576;19;19915;-25
2023/06/12 00:18:28;;;;;;;;;;;23.20;91.00;;;;;;4591856;19;19915;-28
2023/06/12 00:20:00;;;;;;;;;;;23.20;91.00;;;;;;4592746;19;19911;-27
2023/06/12 00:21:32;;;;;;;;;;;23.20;91.10;;;;;;4593283;19;19919;-29
2023/06/12 00:23:07;;;;;;;;;;;23.20;91.10;;;;;;4593382;19;19926;-23
2023/06/12 00:24:38;;;;;;;;;;;23.20;91.10;;;;;;4593064;19;19914;-23
2023/06/12 00:26:09;;;;;;;;;;;23.20;91.10;;;;;;4593248;19;19915;-24
2023/06/12 00:27:44;;;;;;;;;;;23.20;91.10;;;;;;4592728;19;20325;-24
2023/06/12 00:29:16;;;;;;;;;;;23.20;91.10;;;;;;4592503;19;19923;-25
2023/06/12 00:30:50;;;;;;;;;;;23.20;91.10;;;;;;4592971;19;19915;-25
2023/06/12 00:32:21;;;;;;;;;;;23.20;91.10;;;;;;4592861;19;19915;-27
2023/06/12 00:33:52;;;;;;;;;;;23.20;91.00;;;;;;4591198;19;19961;-24
2023/06/12 00:35:25;;;;;;;;;;;23.20;91.00;;;;;;4592133;19;19926;-25
2023/06/12 00:36:57;;;;;;;;;;;23.20;91.10;;;;;;4592180;19;19941;-29
2023/06/12 00:38:28;;;;;;;;;;;23.20;91.00;;;;;;4592948;19;19940;-25
2023/06/12 00:39:59;;;;;;;;;;;23.20;91.00;;;;;;4592667;19;19907;-23
2023/06/12 00:41:30;;;;;;;;;;;23.20;91.00;;;;;;4592466;19;19915;-24
2023/06/12 00:43:01;;;;;;;;;;;23.20;91.00;;;;;;4592880;19;20323;-24
2023/06/12 00:44:32;;;;;;;;;;;23.20;90.90;;;;;;4593003;19;19918;-25
2023/06/12 00:46:03;;;;;;;;;;;23.20;90.90;;;;;;4592622;19;20264;-25
2023/06/12 00:47:35;;;;;;;;;;;23.10;91.00;;;;;;4592420;19;19915;-26
2023/06/12 00:49:06;;;;;;;;;;;23.10;91.00;;;;;;4591617;19;19925;-28
2023/06/12 00:50:37;;;;;;;;;;;23.10;91.10;;;;;;4592928;19;19974;-25
2023/06/12 00:52:11;;;;;;;;;;;23.10;91.10;;;;;;4592084;19;19936;-25
2023/06/12 00:53:44;;;;;;;;;;;23.10;91.10;;;;;;4592721;19;19919;-29
2023/06/12 00:55:17;;;;;;;;;;;23.10;91.10;;;;;;4592830;19;19919;-24
2023/06/12 00:56:50;;;;;;;;;;;23.20;91.20;;;;;;4592730;19;20252;-24
2023/06/12 00:58:21;;;;;;;;;;;23.10;91.10;;;;;;4591748;19;19966;-25
2023/06/12 00:59:53;;;;;;;;;;;23.10;91.10;;;;;;4591740;19;19974;-28
2023/06/12 01:01:25;;;;;;;;;;;23.10;91.10;;;;;;4592778;19;19925;-24
2023/06/12 01:03:03;;;;;;;;;;;23.10;91.00;;;;;;4592902;19;20321;-24
2023/06/12 01:04:37;;;;;;;;;;;23.10;91.00;;;;;;4590807;19;19941;-23
2023/06/12 01:06:09;;;;;;;;;;;23.10;91.00;;;;;;4591486;19;20237;-24
2023/06/12 01:07:47;;;;;;;;;;;23.10;91.00;;;;;;4590156;19;19914;-24
2023/06/12 01:09:26;;;;;;;;;;;23.10;91.00;;;;;;4591159;19;19992;-26
2023/06/12 01:11:02;;;;;;;;;;;23.10;91.10;;;;;;4591767;19;20285;-23
2023/06/12 01:12:33;;;;;;;;;;;23.10;91.00;;;;;;4590617;19;19931;-23
2023/06/12 01:14:04;;;;;;;;;;;23.10;91.00;;;;;;4590730;19;19915;-26
2023/06/12 01:15:36;;;;;;;;;;;23.10;91.00;;;;;;4591912;19;20336;-23
2023/06/12 01:17:07;;;;;;;;;;;23.10;91.00;;;;;;4588677;19;19926;-27
2023/06/12 01:18:38;;;;;;;;;;;23.10;90.90;;;;;;4590832;19;19922;-23
2023/06/12 01:20:13;;;;;;;;;;;23.10;91.00;;;;;;4591878;19;19982;-24
2023/06/12 01:21:46;;;;;;;;;;;23.10;91.00;;;;;;4591070;19;19921;-24
2023/06/12 01:23:36;;;;;;;;;;;23.10;91.10;;;;;;4590512;19;19960;-23
2023/06/12 01:25:08;;;;;;;;;;;23.10;91.00;;;;;;4591318;19;19937;-23
2023/06/12 01:26:41;;;;;;;;;;;23.10;90.90;;;;;;4591823;19;19921;-30
2023/06/12 01:28:12;;;;;;;;;;;23.10;90.90;;;;;;4592523;19;19918;-25
2023/06/12 01:29:52;;;;;;;;;;;23.10;90.90;;;;;;4591269;19;19932;-24
2023/06/12 01:31:28;;;;;;;;;;;23.10;90.90;;;;;;4591720;19;19935;-28
2023/06/12 01:32:59;;;;;;;;;;;23.10;91.00;;;;;;4590769;19;19918;-27
2023/06/12 01:34:33;;;;;;;;;;;23.10;90.90;;;;;;4589982;19;19923;-27
2023/06/12 01:36:04;;;;;;;;;;;23.10;90.90;;;;;;4590890;19;19923;-23
2023/06/12 01:37:42;;;;;;;;;;;23.10;90.90;;;;;;4590881;19;19919;-23
2023/06/12 01:39:13;;;;;;;;;;;23.10;90.90;;;;;;4591660;19;19997;-24
2023/06/12 01:40:45;;;;;;;;;;;23.10;90.90;;;;;;4590828;19;19915;-24
2023/06/12 01:42:16;;;;;;;;;;;23.10;90.90;;;;;;4590923;19;19939;-30
2023/06/12 01:43:48;;;;;;;;;;;23.00;90.80;;;;;;4590258;19;19922;-24
2023/06/12 01:45:19;;;;;;;;;;;23.00;90.80;;;;;;4590698;19;19941;-28
2023/06/12 01:46:50;;;;;;;;;;;23.00;90.90;;;;;;4591476;19;20260;-31
2023/06/12 01:48:22;;;;;;;;;;;23.00;90.90;;;;;;4591057;19;20320;-24
2023/06/12 01:49:53;;;;;;;;;;;23.00;90.90;;;;;;4591196;19;19910;-24
2023/06/12 01:51:24;;;;;;;;;;;23.00;91.00;;;;;;4590071;19;20325;-26
2023/06/12 01:52:55;;;;;;;;;;;23.00;91.10;;;;;;4591126;19;20327;-24
2023/06/12 01:54:27;;;;;;;;;;;23.00;91.10;;;;;;4590886;19;19919;-24
2023/06/12 01:55:58;;;;;;;;;;;22.90;91.10;;;;;;4591524;19;19932;-24
2023/06/12 01:57:30;;;;;;;;;;;23.00;91.20;;;;;;4591127;19;19918;-24
2023/06/12 01:59:01;;;;;;;;;;;22.90;91.20;;;;;;4591620;19;20312;-24
2023/06/12 02:00:32;;;;;;;;;;;23.00;91.20;;;;;;4591198;19;19974;-24
2023/06/12 02:02:04;;;;;;;;;;;23.00;91.20;;;;;;4591027;19;19938;-23
2023/06/12 02:03:36;;;;;;;;;;;23.00;91.20;;;;;;4591806;19;19925;-30
2023/06/12 02:05:07;;;;;;;;;;;22.90;91.20;;;;;;4590774;19;19928;-26
2023/06/12 02:06:40;;;;;;;;;;;22.90;91.10;;;;;;4590586;19;20295;-26
2023/06/12 02:08:11;;;;;;;;;;;23.00;91.20;;;;;;4591338;19;19919;-25
2023/06/12 02:09:42;;;;;;;;;;;23.00;91.20;;;;;;4591482;19;19994;-29
2023/06/12 02:11:14;;;;;;;;;;;22.90;91.10;;;;;;4590802;19;19923;-29
2023/06/12 02:12:44;;;;;;;;;;;23.00;91.40;;;;;;4595400;19;20329;-25
2023/06/12 02:14:15;;;;;;;;;;;23.00;91.10;;;;;;4595670;19;19914;-24
2023/06/12 02:15:47;;;;;;;;;;;22.90;91.10;;;;;;4594726;19;20349;-25
2023/06/12 02:17:19;;;;;;;;;;;23.00;91.10;;;;;;4594138;19;19922;-30
2023/06/12 02:18:50;;;;;;;;;;;22.90;91.10;;;;;;4595905;19;19914;-25
2023/06/12 02:20:21;;;;;;;;;;;22.90;91.10;;;;;;4594211;19;19914;-24
2023/06/12 02:21:53;;;;;;;;;;;22.90;91.10;;;;;;4595144;19;20321;-24
2023/06/12 02:23:24;;;;;;;;;;;22.90;91.20;;;;;;4594876;19;19918;-24
2023/06/12 02:24:56;;;;;;;;;;;22.90;91.10;;;;;;4595776;19;19946;-24
2023/06/12 02:26:27;;;;;;;;;;;22.90;91.10;;;;;;4595503;19;19929;-26
2023/06/12 02:27:58;;;;;;;;;;;22.90;91.10;;;;;;4595234;19;19918;-28
2023/06/12 02:29:30;;;;;;;;;;;22.90;91.10;;;;;;4595626;19;19923;-29
2023/06/12 02:31:03;;;;;;;;;;;22.90;91.00;;;;;;4595635;19;19942;-24
2023/06/12 02:32:35;;;;;;;;;;;22.90;91.00;;;;;;4595528;19;19925;-27
2023/06/12 02:34:06;;;;;;;;;;;22.90;91.00;;;;;;4594142;19;19923;-24
2023/06/12 02:35:37;;;;;;;;;;;22.90;91.00;;;;;;4595288;19;19923;-25
2023/06/12 02:37:08;;;;;;;;;;;22.90;91.00;;;;;;4594459;19;19939;-24
2023/06/12 02:38:39;;;;;;;;;;;22.90;91.10;;;;;;4595641;19;19919;-28
2023/06/12 02:40:11;;;;;;;;;;;22.90;91.10;;;;;;4595097;19;19915;-27
2023/06/12 02:41:42;;;;;;;;;;;22.90;91.10;;;;;;4594634;19;19915;-24
2023/06/12 02:43:14;;;;;;;;;;;22.90;91.10;;;;;;4595196;19;19919;-24
2023/06/12 02:44:45;;;;;;;;;;;22.90;91.20;;;;;;4594782;19;19926;-24
2023/06/12 02:46:16;;;;;;;;;;;22.90;91.20;;;;;;4594920;19;19941;-24
2023/06/12 02:47:47;;;;;;;;;;;22.90;91.20;;;;;;4595504;19;20316;-23
2023/06/12 02:49:20;;;;;;;;;;;22.90;91.20;;;;;;4595033;19;19947;-24
2023/06/12 02:50:51;;;;;;;;;;;22.90;91.30;;;;;;4594757;19;19923;-24
2023/06/12 02:52:22;;;;;;;;;;;22.90;91.30;;;;;;4595057;19;19911;-26
2023/06/12 02:53:53;;;;;;;;;;;22.80;91.30;;;;;;4595217;19;19907;-28
2023/06/12 02:55:24;;;;;;;;;;;22.90;91.30;;;;;;4594900;19;19924;-24
2023/06/12 02:56:55;;;;;;;;;;;22.90;91.30;;;;;;4594237;19;19911;-23
2023/06/12 02:58:27;;;;;;;;;;;22.90;91.30;;;;;;4594942;19;20357;-24
2023/06/12 02:59:57;;;;;;;;;;;22.90;91.30;;;;;;4594997;19;19923;-24
2023/06/12 03:01:30;;;;;;;;;;;22.90;91.50;;;;;;4594878;19;19926;-28
2023/06/12 03:03:02;;;;;;;;;;;22.90;91.30;;;;;;4594369;19;19963;-24
2023/06/12 03:04:36;;;;;;;;;;;22.80;91.30;;;;;;4594541;19;19987;-27
2023/06/12 03:06:07;;;;;;;;;;;22.90;91.30;;;;;;4593779;19;19918;-24
2023/06/12 03:07:40;;;;;;;;;;;22.90;91.30;;;;;;4592699;19;19951;-24
2023/06/12 03:09:11;;;;;;;;;;;22.90;91.30;;;;;;4594304;19;19915;-26
2023/06/12 03:10:42;;;;;;;;;;;22.90;91.30;;;;;;4594824;19;20005;-24
2023/06/12 03:12:14;;;;;;;;;;;22.80;91.30;;;;;;4594620;19;19921;-24
2023/06/12 03:13:45;;;;;;;;;;;22.90;91.30;;;;;;4594353;19;20320;-26
2023/06/12 03:15:18;;;;;;;;;;;22.90;91.30;;;;;;4594661;19;20360;-24
2023/06/12 03:16:50;;;;;;;;;;;22.90;91.30;;;;;;4594205;19;19907;-26
2023/06/12 03:18:21;;;;;;;;;;;22.90;91.40;;;;;;4594626;19;20341;-24
2023/06/12 03:19:52;;;;;;;;;;;22.90;91.40;;;;;;4594517;19;19994;-24
2023/06/12 03:21:23;;;;;;;;;;;22.90;91.40;;;;;;4594663;19;19914;-23
2023/06/12 03:22:54;;;;;;;;;;;22.90;91.40;;;;;;4594229;19;19922;-28
2023/06/12 03:24:29;;;;;;;;;;;22.90;91.40;;;;;;4594315;19;19944;-24
2023/06/12 03:26:01;;;;;;;;;;;22.90;91.40;;;;;;4594096;19;19915;-23
2023/06/12 03:27:32;;;;;;;;;;;22.90;91.50;;;;;;4593218;19;20071;-24
2023/06/12 03:29:03;;;;;;;;;;;22.90;91.50;;;;;;4594346;19;19915;-28
2023/06/12 03:30:34;;;;;;;;;;;22.90;91.50;;;;;;4593740;19;19923;-27
2023/06/12 03:32:05;;;;;;;;;;;22.90;91.50;;;;;;4592894;19;19930;-25
2023/06/12 03:33:37;;;;;;;;;;;22.90;91.50;;;;;;4592161;19;19926;-27
2023/06/12 03:35:08;;;;;;;;;;;22.90;91.50;;;;;;4593996;19;19926;-25
2023/06/12 03:36:39;;;;;;;;;;;22.90;91.50;;;;;;4593586;19;19915;-24
2023/06/12 03:38:10;;;;;;;;;;;22.90;91.60;;;;;;4592481;19;19919;-24
2023/06/12 03:39:42;;;;;;;;;;;22.90;91.50;;;;;;4593894;19;19926;-24
2023/06/12 03:41:13;;;;;;;;;;;22.90;91.50;;;;;;4595339;19;19915;-24
2023/06/12 03:42:45;;;;;;;;;;;22.90;91.50;;;;;;4596092;19;19918;-25
2023/06/12 03:44:16;;;;;;;;;;;23.00;91.50;;;;;;4593760;19;19918;-24
2023/06/12 03:45:47;;;;;;;;;;;22.90;91.40;;;;;;4592558;19;20349;-24
2023/06/12 03:47:18;;;;;;;;;;;22.90;91.60;;;;;;4593381;19;19926;-26
2023/06/12 03:48:49;;;;;;;;;;;23.00;91.60;;;;;;4593806;19;19911;-23
2023/06/12 03:50:22;;;;;;;;;;;23.10;91.60;;;;;;4593784;19;19934;-24
2023/06/12 03:51:53;;;;;;;;;;;23.10;91.60;;;;;;4594144;19;19918;-25
2023/06/12 03:53:24;;;;;;;;;;;23.30;91.60;;;;;;4593157;19;19915;-28
2023/06/12 03:54:56;;;;;;;;;;;23.40;91.50;;;;;;4593993;19;19927;-30
2023/06/12 03:56:27;;;;;;;;;;;23.50;91.30;;;;;;4593605;19;20313;-24
2023/06/12 03:57:58;;;;;;;;;;;23.60;91.10;;;;;;4592529;19;19918;-25
2023/06/12 03:59:29;;;;;;;;;;;23.70;91.00;;;;;;4592319;19;19911;-27
2023/06/12 04:01:01;;;;;;;;;;;23.80;90.80;;;;;;4592960;19;19974;-30
2023/06/12 04:02:32;;;;;;;;;;;23.90;90.60;;;;;;4593827;19;19951;-25
2023/06/12 04:04:05;;;;;;;;;;;23.90;90.40;;;;;;4593040;19;19911;-23
2023/06/12 04:05:37;;;;;;;;;;;24.00;90.40;;;;;;4592855;19;20274;-24
2023/06/12 04:07:08;;;;;;;;;;;24.00;90.20;;;;;;4593498;19;19918;-25
2023/06/12 04:08:39;;;;;;;;;;;24.00;90.10;;;;;;4593748;19;19914;-27
2023/06/12 04:10:12;;;;;;;;;;;24.10;91.70;;;;;;4593813;19;19919;-26
2023/06/12 04:11:43;;;;;;;;;;;24.20;93.50;;;;;;4593170;19;19946;-24
2023/06/12 04:13:14;;;;;;;;;;;24.30;92.50;;;;;;4593353;19;19922;-24
2023/06/12 04:14:46;;;;;;;;;;;24.30;91.80;;;;;;4593792;19;19978;-25
2023/06/12 04:16:17;;;;;;;;;;;24.30;91.50;;;;;;4591667;19;19918;-25
2023/06/12 04:17:48;;;;;;;;;;;24.20;91.20;;;;;;4592641;19;20337;-23
2023/06/12 04:19:20;;;;;;;;;;;24.20;90.80;;;;;;4595131;19;19918;-29
2023/06/12 04:20:51;;;;;;;;;;;24.10;90.90;;;;;;4594779;19;20334;-25
2023/06/12 04:22:22;;;;;;;;;;;24.00;90.70;;;;;;4594935;19;19943;-23
2023/06/12 04:23:53;;;;;;;;;;;23.90;90.60;;;;;;4594245;19;19975;-25
2023/06/12 04:25:27;;;;;;;;;;;23.80;90.60;;;;;;4592226;19;20291;-24
2023/06/12 04:27:01;;;;;;;;;;;23.80;90.70;;;;;;4593712;19;19911;-27
2023/06/12 04:28:33;;;;;;;;;;;23.70;90.70;;;;;;4593379;19;20329;-25
2023/06/12 04:30:05;;;;;;;;;;;23.70;90.60;;;;;;4594651;19;19926;-26
2023/06/12 04:31:36;;;;;;;;;;;23.70;90.40;;;;;;4593893;19;19919;-24
2023/06/12 04:33:09;;;;;;;;;;;23.70;90.10;;;;;;4594256;19;19923;-22
2023/06/12 04:34:41;;;;;;;;;;;23.70;90.10;;;;;;4588493;19;19915;-28
2023/06/12 04:36:13;;;;;;;;;;;23.70;89.90;;;;;;4593419;19;20334;-25
2023/06/12 04:37:48;;;;;;;;;;;23.80;90.00;;;;;;4589310;19;20011;-24
2023/06/12 04:39:19;;;;;;;;;;;23.80;90.20;;;;;;4591854;19;20325;-27
2023/06/12 04:40:51;;;;;;;;;;;23.80;90.00;;;;;;4592682;19;20321;-25
2023/06/12 04:42:26;;;;;;;;;;;23.80;89.70;;;;;;4593200;19;19919;-23
2023/06/12 04:44:00;;;;;;;;;;;23.80;89.60;;;;;;4593123;19;19918;-25
2023/06/12 04:45:32;;;;;;;;;;;23.80;89.80;;;;;;4592316;19;20394;-27
2023/06/12 04:47:14;;;;;;;;;;;23.90;89.70;;;;;;4591417;19;19919;-24
2023/06/12 04:48:45;;;;;;;;;;;23.80;89.60;;;;;;4591087;19;19918;-25
2023/06/12 04:50:18;;;;;;;;;;;23.80;89.60;;;;;;4591637;19;19919;-23
2023/06/12 04:51:49;;;;;;;;;;;23.80;89.40;;;;;;4592143;19;20218;-23
2023/06/12 04:53:27;;;;;;;;;;;23.80;89.70;;;;;;4592462;19;19935;-24
2023/06/12 04:54:59;;;;;;;;;;;23.70;89.30;;;;;;4592663;19;19915;-24
2023/06/12 04:56:31;;;;;;;;;;;23.70;89.50;;;;;;4591628;19;19923;-25
2023/06/12 04:58:02;;;;;;;;;;;23.70;89.70;;;;;;4590568;19;19919;-23
2023/06/12 04:59:39;;;;;;;;;;;23.70;89.50;;;;;;4591470;19;19935;-25
2023/06/12 05:01:11;;;;;;;;;;;23.60;89.60;;;;;;4591870;19;19978;-25
2023/06/12 05:02:44;;;;;;;;;;;23.60;89.70;;;;;;4589650;19;19915;-27
2023/06/12 05:04:16;;;;;;;;;;;23.60;89.60;;;;;;4590699;19;19926;-25
2023/06/12 05:05:48;;;;;;;;;;;23.50;89.70;;;;;;4593017;19;20301;-23
2023/06/12 05:07:19;;;;;;;;;;;23.50;89.90;;;;;;4588207;19;20333;-28
2023/06/12 05:08:50;;;;;;;;;;;23.50;89.90;;;;;;4590206;19;19931;-25
2023/06/12 05:10:24;;;;;;;;;;;23.50;89.70;;;;;;4591427;19;19915;-25
2023/06/12 05:11:56;;;;;;;;;;;23.50;89.70;;;;;;4592001;19;19917;-24
2023/06/12 05:13:27;;;;;;;;;;;23.50;90.00;;;;;;4592712;19;20349;-24
2023/06/12 05:15:01;;;;;;;;;;;23.50;90.10;;;;;;4592462;19;19919;-25
2023/06/12 05:16:32;;;;;;;;;;;23.50;90.00;;;;;;4591943;19;19914;-24
2023/06/12 05:18:03;;;;;;;;;;;23.40;89.60;;;;;;4591079;19;19919;-27
2023/06/12 05:19:35;;;;;;;;;;;23.40;89.50;;;;;;4592311;19;19925;-24
2023/06/12 05:21:06;;;;;;;;;;;23.40;89.60;;;;;;4592014;19;19915;-28
2023/06/12 05:22:37;;;;;;;;;;;23.40;89.90;;;;;;4591615;19;19977;-24
2023/06/12 05:24:09;;;;;;;;;;;23.40;89.90;;;;;;4592284;19;19933;-23
2023/06/12 05:25:40;;;;;;;;;;;23.40;89.70;;;;;;4592501;19;19970;-25
2023/06/12 05:27:11;;;;;;;;;;;23.40;89.90;;;;;;4591232;19;19923;-27
2023/06/12 05:28:43;;;;;;;;;;;23.40;89.80;;;;;;4589734;19;19923;-24
2023/06/12 05:30:15;;;;;;;;;;;23.40;90.00;;;;;;4592240;19;19919;-22
2023/06/12 05:31:46;;;;;;;;;;;23.40;90.10;;;;;;4591746;19;19926;-24
2023/06/12 05:33:17;;;;;;;;;;;23.40;89.90;;;;;;4591317;19;19914;-28
2023/06/12 05:34:48;;;;;;;;;;;23.40;90.40;;;;;;4591498;19;19915;-24
2023/06/12 05:36:19;;;;;;;;;;;23.40;90.00;;;;;;4589593;19;20214;-26
2023/06/12 05:37:51;;;;;;;;;;;23.40;90.00;;;;;;4591544;19;20260;-30
2023/06/12 05:39:22;;;;;;;;;;;23.40;90.00;;;;;;4591455;19;19918;-25
2023/06/12 05:40:53;;;;;;;;;;;23.40;90.00;;;;;;4591690;19;19932;-23
2023/06/12 05:42:25;;;;;;;;;;;23.40;90.40;;;;;;4590950;19;19923;-24
2023/06/12 05:43:56;;;;;;;;;;;23.40;91.00;;;;;;4590888;19;20367;-24
2023/06/12 05:45:26;;;;;;;;;;;23.40;90.60;;;;;;4591230;19;19918;-25
2023/06/12 05:47:00;;;;;;;;;;;23.40;90.30;;;;;;4589193;19;19919;-31
2023/06/12 05:48:31;;;;;;;;;;;23.40;90.50;;;;;;4592113;19;20002;-26
2023/06/12 05:50:02;;;;;;;;;;;23.40;90.90;;;;;;4591045;19;20383;-24
2023/06/12 05:51:33;;;;;;;;;;;23.40;90.60;;;;;;4589925;19;19911;-24
2023/06/12 05:53:08;;;;;;;;;;;23.40;90.70;;;;;;4591121;19;19941;-28
2023/06/12 05:54:39;;;;;;;;;;;23.40;91.10;;;;;;4591384;19;20285;-24
2023/06/12 05:56:12;;;;;;;;;;;23.40;90.90;;;;;;4590921;19;19918;-28
2023/06/12 07:09:24;;;;;;;;;;;23.60;92.10;;;;;;4594750;19;19914;-24
2023/06/12 07:10:56;;;;;;;;;;;23.60;92.80;;;;;;4594229;19;19914;-28
2023/06/12 07:12:27;;;;;;;;;;;23.60;92.40;;;;;;4593491;19;19919;-26
2023/06/12 09:20:40;;;;;;;;;;;23.90;94.30;;;;;;4591128;19;19915;-25
2023/06/12 09:22:30;;;;;;;;;;;23.90;94.70;;;;;;4591910;19;19911;-27
2023/06/12 09:24:01;;;;;;;;;;;23.90;95.00;;;;;;4591778;19;19978;-28
2023/06/12 09:25:39;;;;;;;;;;;24.00;93.90;;;;;;4592168;19;19919;-29
2023/06/12 09:27:11;;;;;;;;;;;24.00;94.60;;;;;;4592058;19;19911;-25
2023/06/12 09:28:42;;;;;;;;;;;23.90;95.10;;;;;;4591572;19;19942;-24
2023/06/12 09:30:13;;;;;;;;;;;23.90;95.20;;;;;;4590620;19;19975;-28
2023/06/12 09:31:50;;;;;;;;;;;24.00;95.30;;;;;;4591524;19;20256;-28
2023/06/12 09:33:25;;;;;;;;;;;23.90;95.10;;;;;;4592103;19;19919;-27
2023/06/12 09:34:56;;;;;;;;;;;23.90;95.70;;;;;;4591499;19;19918;-24
2023/06/12 09:36:27;;;;;;;;;;;24.00;96.00;;;;;;4590530;19;20339;-24
2023/06/12 09:38:00;;;;;;;;;;;24.00;96.00;;;;;;4589646;19;19939;-27
2023/06/12 09:39:32;;;;;;;;;;;24.00;95.90;;;;;;4591074;19;19915;-24
2023/06/12 09:41:03;;;;;;;;;;;24.00;96.20;;;;;;4591068;19;19926;-24
2023/06/12 09:42:35;;;;;;;;;;;23.90;94.00;;;;;;4591778;19;19915;-27
2023/06/12 09:44:06;;;;;;;;;;;23.90;96.00;;;;;;4591664;19;19931;-30
2023/06/12 09:45:38;;;;;;;;;;;24.00;96.00;;;;;;4590017;19;20340;-25
2023/06/12 09:47:09;;;;;;;;;;;23.90;96.10;;;;;;4590784;19;19970;-31
2023/06/12 09:48:41;;;;;;;;;;;24.00;95.70;;;;;;4591645;19;19922;-24
2023/06/12 10:12:50;;;;;;;;;;;23.90;96.30;;;;;;4590055;19;20288;-25
2023/06/12 10:14:21;;;;;;;;;;;23.90;96.40;;;;;;4590506;19;19922;-25
2023/06/12 10:15:53;;;;;;;;;;;23.90;95.20;;;;;;4589607;19;20236;-24
2023/06/12 10:17:24;;;;;;;;;;;23.90;95.80;;;;;;4588939;19;20329;-24
2023/06/12 10:18:56;;;;;;;;;;;23.90;95.70;;;;;;4590550;19;19927;-24
2023/06/12 10:20:58;;;;;;;;;;;23.90;96.50;;;;;;4588853;19;19918;-26
2023/06/12 10:22:31;;;;;;;;;;;23.90;96.30;;;;;;4590001;19;20328;-25
2023/06/12 10:24:04;;;;;;;;;;;23.90;95.50;;;;;;4589687;19;19915;-26
2023/06/12 10:30:22;;;;;;;;;;;23.90;96.10;;;;;;4590015;19;19959;-24
2023/06/12 10:31:53;;;;;;;;;;;23.90;94.80;;;;;;4590512;19;20265;-25
2023/06/12 10:33:25;;;;;;;;;;;23.80;93.80;;;;;;4593983;19;19937;-24
2023/06/12 10:34:56;;;;;;;;;;;23.90;96.40;;;;;;4593878;19;19922;-30
2023/06/12 10:36:39;;;;;;;;;;;23.80;96.10;;;;;;4594999;19;19926;-26
2023/06/12 10:38:12;;;;;;;;;;;23.90;96.50;;;;;;4593896;19;19919;-23
2023/06/12 11:09:12;;;;;;;;;;;23.90;97.00;;;;;;4593966;19;19927;-29
2023/06/12 11:10:43;;;;;;;;;;;23.90;97.20;;;;;;4594485;19;20352;-24
2023/06/12 13:09:47;;;;;;;;;;;23.80;94.80;;;;;;4587862;19;19975;-26
2023/06/12 13:11:19;;;;;;;;;;;23.80;96.50;;;;;;4591219;19;19990;-26
2023/06/12 13:12:50;;;;;;;;;;;23.80;96.40;;;;;;4591713;19;19922;-24
2023/06/12 13:14:22;;;;;;;;;;;23.90;96.90;;;;;;4592790;19;19915;-29
2023/06/12 13:15:53;;;;;;;;;;;23.90;97.00;;;;;;4591789;19;19914;-27
2023/06/12 13:17:24;;;;;;;;;;;23.90;97.80;;;;;;4591580;19;19919;-23
2023/06/12 13:18:55;;;;;;;;;;;24.00;98.10;;;;;;4591935;19;19970;-24
2023/06/12 13:20:27;;;;;;;;;;;24.10;97.50;;;;;;4591810;19;19923;-24
2023/06/12 13:21:58;;;;;;;;;;;24.10;98.70;;;;;;4591848;19;20329;-24
2023/06/12 13:23:30;;;;;;;;;;;24.20;99.50;;;;;;4591998;19;19926;-25
2023/06/12 13:25:01;;;;;;;;;;;24.30;99.80;;;;;;4591705;19;19974;-24
2023/06/12 13:26:34;;;;;;;;;;;24.30;99.70;;;;;;4590899;19;20241;-24
2023/06/12 13:28:05;;;;;;;;;;;24.30;99.90;;;;;;4590408;19;19918;-30
2023/06/12 13:29:37;;;;;;;;;;;24.40;99.90;;;;;;4591367;19;19919;-26
2023/06/12 13:31:08;;;;;;;;;;;24.40;99.90;;;;;;4592127;19;19911;-26
2023/06/12 13:32:39;;;;;;;;;;;24.40;99.90;;;;;;4591060;19;19918;-28
2023/06/12 13:34:11;;;;;;;;;;;24.40;99.90;;;;;;4591433;19;20340;-24
2023/06/12 13:35:42;;;;;;;;;;;24.40;99.90;;;;;;4592476;19;19926;-25
2023/06/12 13:37:13;;;;;;;;;;;24.50;99.90;;;;;;4591939;19;19919;-24
2023/06/12 13:38:44;;;;;;;;;;;24.50;99.90;;;;;;4590267;19;19921;-25
2023/06/12 13:40:16;;;;;;;;;;;24.50;99.90;;;;;;4590883;19;19967;-27
2023/06/12 13:41:47;;;;;;;;;;;24.50;99.90;;;;;;4591522;19;19922;-23
2023/06/12 13:43:19;;;;;;;;;;;24.50;99.90;;;;;;4592273;19;19927;-25
2023/06/12 13:44:50;;;;;;;;;;;24.50;99.90;;;;;;4591171;19;19943;-24
2023/06/12 13:46:54;;;;;;;;;;;24.40;99.90;;;;;;4591235;19;19982;-31
2023/06/12 13:50:16;;;;;;;;;;;24.40;99.90;;;;;;4591502;19;19918;-23
2023/06/12 13:51:47;;;;;;;;;;;24.40;99.90;;;;;;4590490;19;19930;-23
2023/06/12 13:53:18;;;;;;;;;;;24.40;99.90;;;;;;4590544;19;19919;-24
2023/06/12 13:54:50;;;;;;;;;;;24.40;99.60;;;;;;4590647;19;19917;-23
2023/06/12 13:56:21;;;;;;;;;;;24.40;99.60;;;;;;4590308;19;19923;-24
2023/06/12 13:57:55;;;;;;;;;;;24.40;99.60;;;;;;4590253;19;20268;-23
2023/06/12 13:59:26;;;;;;;;;;;24.40;96.40;;;;;;4591035;19;19925;-23
2023/06/12 14:00:57;;;;;;;;;;;24.40;99.80;;;;;;4591278;19;19911;-26
2023/06/12 14:02:28;;;;;;;;;;;24.60;94.90;;;;;;4590202;19;19923;-23
2023/06/12 14:04:00;;;;;;;;;;;24.60;98.30;;;;;;4590577;19;19927;-25
2023/06/12 14:05:31;;;;;;;;;;;24.70;99.60;;;;;;4590545;19;19923;-27
2023/06/12 14:07:03;;;;;;;;;;;24.80;98.30;;;;;;4590966;19;19923;-24
2023/06/12 14:08:40;;;;;;;;;;;24.90;99.10;;;;;;4595290;19;19919;-25
2023/06/12 14:10:11;;;;;;;;;;;24.90;98.00;;;;;;4593195;19;19915;-23
2023/06/12 14:11:42;;;;;;;;;;;24.80;95.30;;;;;;4594701;19;20269;-27
2023/06/12 14:13:13;;;;;;;;;;;24.80;98.20;;;;;;4595179;19;19936;-25
2023/06/12 14:14:46;;;;;;;;;;;24.80;96.20;;;;;;4595010;19;19919;-25
2023/06/12 14:16:20;;;;;;;;;;;24.80;95.50;;;;;;4595013;19;20325;-24
2023/06/12 14:17:52;;;;;;;;;;;24.80;96.70;;;;;;4594793;19;19970;-24
2023/06/12 14:19:24;;;;;;;;;;;24.80;96.10;;;;;;4594143;19;19919;-24
2023/06/12 14:20:55;;;;;;;;;;;24.80;98.00;;;;;;4594788;19;19918;-24
2023/06/12 14:22:26;;;;;;;;;;;24.90;98.60;;;;;;4593770;19;19919;-28
2023/06/12 14:23:58;;;;;;;;;;;24.90;98.50;;;;;;4594740;19;20358;-24
2023/06/12 14:25:34;;;;;;;;;;;24.90;92.50;;;;;;4594314;19;19923;-28
2023/06/12 14:27:07;;;;;;;;;;;24.80;95.60;;;;;;4594238;19;20299;-25
2023/06/12 14:28:38;;;;;;;;;;;24.80;96.40;;;;;;4594673;19;19919;-23
2023/06/12 14:30:12;;;;;;;;;;;24.80;95.50;;;;;;4592477;19;19923;-24
2023/06/12 14:31:46;;;;;;;;;;;24.80;96.60;;;;;;4594425;19;20324;-24
2023/06/12 14:33:17;;;;;;;;;;;24.80;93.90;;;;;;4595532;19;19922;-24
2023/06/12 14:34:48;;;;;;;;;;;24.80;98.00;;;;;;4595225;19;19929;-24
2023/06/12 14:36:20;;;;;;;;;;;24.80;98.80;;;;;;4595368;19;20355;-25
2023/06/12 14:37:51;;;;;;;;;;;24.80;98.60;;;;;;4594563;19;20329;-26
2023/06/12 14:39:22;;;;;;;;;;;24.90;98.50;;;;;;4595321;19;19918;-25
2023/06/12 14:40:53;;;;;;;;;;;24.90;98.00;;;;;;4594497;19;20327;-24
2023/06/12 14:42:24;;;;;;;;;;;24.90;97.60;;;;;;4595337;19;19911;-24
2023/06/12 14:43:57;;;;;;;;;;;24.90;97.00;;;;;;4595420;19;19941;-24
2023/06/12 14:45:27;;;;;;;;;;;24.90;94.20;;;;;;4594684;19;19919;-24
2023/06/12 14:46:58;;;;;;;;;;;24.80;94.40;;;;;;4595127;19;19915;-25
2023/06/12 14:48:30;;;;;;;;;;;24.80;96.00;;;;;;4592517;19;20041;-23
2023/06/12 14:50:01;;;;;;;;;;;24.90;90.40;;;;;;4594734;19;20313;-23
2023/06/12 14:51:32;;;;;;;;;;;24.80;90.80;;;;;;4594657;19;19915;-24
2023/06/12 14:53:05;;;;;;;;;;;24.80;93.90;;;;;;4594627;19;20065;-24
2023/06/12 14:54:36;;;;;;;;;;;24.80;94.50;;;;;;4595161;19;19919;-24
2023/06/12 14:56:07;;;;;;;;;;;24.80;94.00;;;;;;4594766;19;19925;-24
2023/06/12 14:57:40;;;;;;;;;;;24.90;93.50;;;;;;4594096;19;19919;-24
2023/06/12 14:59:11;;;;;;;;;;;24.80;92.60;;;;;;4595034;19;20329;-27
2023/06/12 15:00:43;;;;;;;;;;;24.80;94.00;;;;;;4595157;19;19918;-27
2023/06/12 15:18:39;;;;;;;;;;;24.90;97.10;;;;;;4589046;19;19922;-26
2023/06/12 15:20:11;;;;;;;;;;;24.90;98.50;;;;;;4594629;19;19919;-25
2023/06/12 15:21:43;;;;;;;;;;;24.90;98.50;;;;;;4594760;19;19918;-29
2023/06/12 15:23:14;;;;;;;;;;;24.90;97.40;;;;;;4591824;19;19945;-25
2023/06/12 15:24:45;;;;;;;;;;;24.90;98.80;;;;;;4593344;19;19927;-26
2023/06/12 15:26:17;;;;;;;;;;;24.80;96.30;;;;;;4594205;19;19930;-29